Decoded Metar for PAMH (MINCHUMINA in AK, USA) (IATA:MHM) | Meteo·Mobile Aviation Weather
aviador You're here:

PAMH Decoded Metar

MINCHUMINA in AK, USA
Report Time2018-12-10 15:56:00
UTC Time2018-12-10 16:07:58
Flight Rules vfr VFR
WindVRB at 03 kt
Visibility9999 m
Phenomena:N/A
Clouds:N/A
Expected CloudBase > 800 ft AGL from Temp-Dew spread
CeilingNone
Temp-20°C (ISA -34)
Dew Point-22°C (84% RH)
AAT-24.7°C
QNH982 hPa
Density Alt-2,487 ft
Elevation702 ft
Report Wrong Elevation
Raw Report
PAMH 101556Z AUTO VRB03KT 10SM CLR M20/M22 A2901 RMK AO2 SNE37
SLP585 P0000 T12001222 FZRANO=

Extra information for PAMH:More info

Metar Taf Metar & Taf Last 4 Metars F.Rules Stats Wind Profile Meteogram Temp Stats Airport Information Weather charts Add Link Nearby VenuesMetar ALERT Operation Metar Decoded Social comments

AIRNAV info for PAMH